sensor_id;sensor_type;location;lat;lon;timestamp;P1;durP1;ratioP1;P2;durP2;ratioP2
10381;SDS011;11635;53.636;10.120;2022-12-29T00:00:13;5.82;;;4.25;;
10381;SDS011;11635;53.636;10.120;2022-12-29T00:02:39;5.82;;;4.70;;
10381;SDS011;11635;53.636;10.120;2022-12-29T00:05:09;5.32;;;3.80;;
10381;SDS011;11635;53.636;10.120;2022-12-29T00:07:36;5.25;;;4.70;;
10381;SDS011;11635;53.636;10.120;2022-12-29T00:10:02;9.35;;;5.35;;
10381;SDS011;11635;53.636;10.120;2022-12-29T00:12:29;5.38;;;4.57;;
10381;SDS011;11635;53.636;10.120;2022-12-29T00:15:15;5.40;;;4.90;;
10381;SDS011;11635;53.636;10.120;2022-12-29T00:17:59;7.40;;;5.45;;
10381;SDS011;11635;53.636;10.120;2022-12-29T00:20:27;6.50;;;5.20;;
10381;SDS011;11635;53.636;10.120;2022-12-29T00:23:11;6.10;;;5.38;;
10381;SDS011;11635;53.636;10.120;2022-12-29T00:25:55;5.40;;;4.90;;
10381;SDS011;11635;53.636;10.120;2022-12-29T00:28:39;6.40;;;5.40;;
10381;SDS011;11635;53.636;10.120;2022-12-29T00:31:23;6.45;;;5.85;;
10381;SDS011;11635;53.636;10.120;2022-12-29T00:34:07;5.80;;;5.20;;
10381;SDS011;11635;53.636;10.120;2022-12-29T00:36:53;6.43;;;5.07;;
10381;SDS011;11635;53.636;10.120;2022-12-29T00:39:19;9.15;;;5.68;;
10381;SDS011;11635;53.636;10.120;2022-12-29T00:42:05;9.85;;;5.38;;
10381;SDS011;11635;53.636;10.120;2022-12-29T00:44:58;6.70;;;5.38;;
10381;SDS011;11635;53.636;10.120;2022-12-29T00:47:24;6.05;;;5.55;;
10381;SDS011;11635;53.636;10.120;2022-12-29T00:49:50;5.63;;;5.13;;
10381;SDS011;11635;53.636;10.120;2022-12-29T00:52:17;5.97;;;5.45;;
10381;SDS011;11635;53.636;10.120;2022-12-29T00:54:43;6.63;;;5.60;;
10381;SDS011;11635;53.636;10.120;2022-12-29T00:57:10;6.75;;;5.30;;
10381;SDS011;11635;53.636;10.120;2022-12-29T00:59:37;6.45;;;5.43;;
10381;SDS011;11635;53.636;10.120;2022-12-29T01:02:04;7.35;;;5.43;;
10381;SDS011;11635;53.636;10.120;2022-12-29T01:04:30;6.53;;;5.82;;
10381;SDS011;11635;53.636;10.120;2022-12-29T01:06:56;6.60;;;5.65;;
10381;SDS011;11635;53.636;10.120;2022-12-29T01:09:24;5.43;;;4.93;;
10381;SDS011;11635;53.636;10.120;2022-12-29T01:12:08;6.30;;;5.70;;
10381;SDS011;11635;53.636;10.120;2022-12-29T01:14:35;6.57;;;5.78;;
10381;SDS011;11635;53.636;10.120;2022-12-29T01:17:01;6.28;;;5.35;;
10381;SDS011;11635;53.636;10.120;2022-12-29T01:19:28;5.88;;;5.30;;
10381;SDS011;11635;53.636;10.120;2022-12-29T01:21:54;5.93;;;5.32;;
10381;SDS011;11635;53.636;10.120;2022-12-29T01:24:20;7.03;;;5.35;;
10381;SDS011;11635;53.636;10.120;2022-12-29T01:26:48;5.40;;;4.90;;
10381;SDS011;11635;53.636;10.120;2022-12-29T01:29:15;5.93;;;5.43;;
10381;SDS011;11635;53.636;10.120;2022-12-29T01:31:41;5.35;;;4.85;;
10381;SDS011;11635;53.636;10.120;2022-12-29T01:34:07;6.10;;;5.50;;
10381;SDS011;11635;53.636;10.120;2022-12-29T01:36:34;5.47;;;4.97;;
10381;SDS011;11635;53.636;10.120;2022-12-29T01:39:00;5.88;;;5.28;;
10381;SDS011;11635;53.636;10.120;2022-12-29T01:41:27;6.72;;;5.32;;
10381;SDS011;11635;53.636;10.120;2022-12-29T01:43:55;5.35;;;4.85;;
10381;SDS011;11635;53.636;10.120;2022-12-29T01:46:25;6.10;;;5.10;;
10381;SDS011;11635;53.636;10.120;2022-12-29T01:48:53;5.18;;;4.72;;
10381;SDS011;11635;53.636;10.120;2022-12-29T01:51:20;5.90;;;5.30;;
10381;SDS011;11635;53.636;10.120;2022-12-29T01:53:47;6.38;;;5.07;;
10381;SDS011;11635;53.636;10.120;2022-12-29T01:56:15;5.93;;;5.32;;
10381;SDS011;11635;53.636;10.120;2022-12-29T01:58:43;6.50;;;5.88;;
10381;SDS011;11635;53.636;10.120;2022-12-29T02:01:12;6.05;;;5.15;;
10381;SDS011;11635;53.636;10.120;2022-12-29T02:03:39;5.65;;;5.15;;
10381;SDS011;11635;53.636;10.120;2022-12-29T02:06:07;6.15;;;5.45;;
10381;SDS011;11635;53.636;10.120;2022-12-29T02:08:36;6.13;;;5.50;;
10381;SDS011;11635;53.636;10.120;2022-12-29T02:11:04;6.32;;;5.72;;
10381;SDS011;11635;53.636;10.120;2022-12-29T02:13:31;7.05;;;6.32;;
10381;SDS011;11635;53.636;10.120;2022-12-29T02:16:00;5.53;;;5.03;;
10381;SDS011;11635;53.636;10.120;2022-12-29T02:18:32;6.68;;;6.07;;
10381;SDS011;11635;53.636;10.120;2022-12-29T02:21:30;6.18;;;5.60;;
10381;SDS011;11635;53.636;10.120;2022-12-29T02:26:51;6.57;;;5.97;;
10381;SDS011;11635;53.636;10.120;2022-12-29T02:29:29;8.38;;;6.50;;
10381;SDS011;11635;53.636;10.120;2022-12-29T02:32:02;7.65;;;6.85;;
10381;SDS011;11635;53.636;10.120;2022-12-29T02:34:32;6.70;;;6.05;;
10381;SDS011;11635;53.636;10.120;2022-12-29T02:37:03;7.25;;;5.90;;
10381;SDS011;11635;53.636;10.120;2022-12-29T02:39:32;6.65;;;5.63;;
10381;SDS011;11635;53.636;10.120;2022-12-29T02:42:03;5.88;;;5.38;;
10381;SDS011;11635;53.636;10.120;2022-12-29T02:44:34;7.45;;;6.00;;
10381;SDS011;11635;53.636;10.120;2022-12-29T02:47:03;6.45;;;5.68;;
10381;SDS011;11635;53.636;10.120;2022-12-29T02:49:33;5.60;;;5.07;;
10381;SDS011;11635;53.636;10.120;2022-12-29T02:52:01;5.38;;;4.88;;
10381;SDS011;11635;53.636;10.120;2022-12-29T02:54:28;6.43;;;5.20;;
10381;SDS011;11635;53.636;10.120;2022-12-29T02:57:08;5.40;;;4.90;;
10381;SDS011;11635;53.636;10.120;2022-12-29T02:59:35;5.68;;;4.80;;
10381;SDS011;11635;53.636;10.120;2022-12-29T03:02:07;6.63;;;4.68;;
10381;SDS011;11635;53.636;10.120;2022-12-29T03:04:48;9.82;;;4.82;;
10381;SDS011;11635;53.636;10.120;2022-12-29T03:07:18;5.53;;;4.85;;
10381;SDS011;11635;53.636;10.120;2022-12-29T03:09:49;6.25;;;5.05;;
10381;SDS011;11635;53.636;10.120;2022-12-29T03:12:20;5.55;;;4.95;;
10381;SDS011;11635;53.636;10.120;2022-12-29T03:14:52;5.97;;;4.53;;
10381;SDS011;11635;53.636;10.120;2022-12-29T03:17:44;7.00;;;4.63;;
10381;SDS011;11635;53.636;10.120;2022-12-29T03:20:13;5.43;;;4.40;;
10381;SDS011;11635;53.636;10.120;2022-12-29T03:22:41;4.43;;;4.03;;
10381;SDS011;11635;53.636;10.120;2022-12-29T03:25:10;5.30;;;4.32;;
10381;SDS011;11635;53.636;10.120;2022-12-29T03:27:39;6.07;;;4.40;;
10381;SDS011;11635;53.636;10.120;2022-12-29T03:30:06;4.90;;;4.45;;
10381;SDS011;11635;53.636;10.120;2022-12-29T03:32:35;4.85;;;4.45;;
10381;SDS011;11635;53.636;10.120;2022-12-29T03:35:04;5.72;;;4.57;;
10381;SDS011;11635;53.636;10.120;2022-12-29T03:37:32;4.63;;;4.10;;
10381;SDS011;11635;53.636;10.120;2022-12-29T03:40:01;4.82;;;3.90;;
10381;SDS011;11635;53.636;10.120;2022-12-29T03:42:28;4.63;;;4.22;;
10381;SDS011;11635;53.636;10.120;2022-12-29T03:44:55;4.85;;;4.30;;
10381;SDS011;11635;53.636;10.120;2022-12-29T03:47:22;4.63;;;4.15;;
10381;SDS011;11635;53.636;10.120;2022-12-29T03:49:49;4.95;;;4.45;;
10381;SDS011;11635;53.636;10.120;2022-12-29T03:52:17;3.80;;;3.50;;
10381;SDS011;11635;53.636;10.120;2022-12-29T03:54:43;4.43;;;3.50;;
10381;SDS011;11635;53.636;10.120;2022-12-29T03:57:10;5.75;;;4.05;;
10381;SDS011;11635;53.636;10.120;2022-12-29T03:59:36;4.07;;;3.63;;
10381;SDS011;11635;53.636;10.120;2022-12-29T04:02:02;3.55;;;3.25;;
10381;SDS011;11635;53.636;10.120;2022-12-29T04:04:29;4.80;;;3.83;;
10381;SDS011;11635;53.636;10.120;2022-12-29T04:06:55;4.97;;;3.47;;
10381;SDS011;11635;53.636;10.120;2022-12-29T04:09:23;4.45;;;3.58;;
10381;SDS011;11635;53.636;10.120;2022-12-29T04:11:49;3.72;;;3.10;;
10381;SDS011;11635;53.636;10.120;2022-12-29T04:14:15;3.65;;;3.20;;
10381;SDS011;11635;53.636;10.120;2022-12-29T04:16:42;3.08;;;2.88;;
10381;SDS011;11635;53.636;10.120;2022-12-29T04:19:08;3.42;;;3.10;;
10381;SDS011;11635;53.636;10.120;2022-12-29T04:21:34;3.25;;;2.95;;
10381;SDS011;11635;53.636;10.120;2022-12-29T04:24:01;3.17;;;2.95;;
10381;SDS011;11635;53.636;10.120;2022-12-29T04:26:29;3.10;;;2.53;;
10381;SDS011;11635;53.636;10.120;2022-12-29T04:28:55;3.42;;;3.00;;
10381;SDS011;11635;53.636;10.120;2022-12-29T04:31:21;5.22;;;2.97;;
10381;SDS011;11635;53.636;10.120;2022-12-29T04:33:48;2.92;;;2.63;;
10381;SDS011;11635;53.636;10.120;2022-12-29T04:36:14;3.17;;;2.80;;
10381;SDS011;11635;53.636;10.120;2022-12-29T04:38:40;3.25;;;2.40;;
10381;SDS011;11635;53.636;10.120;2022-12-29T04:41:07;2.75;;;2.55;;
10381;SDS011;11635;53.636;10.120;2022-12-29T04:43:34;2.60;;;2.40;;
10381;SDS011;11635;53.636;10.120;2022-12-29T04:46:01;3.22;;;2.63;;
10381;SDS011;11635;53.636;10.120;2022-12-29T04:48:27;2.42;;;2.00;;
10381;SDS011;11635;53.636;10.120;2022-12-29T04:50:53;2.35;;;2.15;;
10381;SDS011;11635;53.636;10.120;2022-12-29T04:53:20;3.25;;;2.17;;
10381;SDS011;11635;53.636;10.120;2022-12-29T04:55:48;2.60;;;2.40;;
10381;SDS011;11635;53.636;10.120;2022-12-29T04:58:14;3.00;;;2.70;;
10381;SDS011;11635;53.636;10.120;2022-12-29T05:00:42;4.50;;;2.65;;
10381;SDS011;11635;53.636;10.120;2022-12-29T05:03:08;2.47;;;2.28;;
10381;SDS011;11635;53.636;10.120;2022-12-29T05:05:34;2.60;;;2.35;;
10381;SDS011;11635;53.636;10.120;2022-12-29T05:08:01;2.88;;;2.33;;
10381;SDS011;11635;53.636;10.120;2022-12-29T05:10:27;2.30;;;2.10;;
10381;SDS011;11635;53.636;10.120;2022-12-29T05:12:53;3.33;;;2.38;;
10381;SDS011;11635;53.636;10.120;2022-12-29T05:15:20;3.05;;;2.45;;
10381;SDS011;11635;53.636;10.120;2022-12-29T05:17:48;2.70;;;2.30;;
10381;SDS011;11635;53.636;10.120;2022-12-29T05:20:14;2.22;;;2.03;;
10381;SDS011;11635;53.636;10.120;2022-12-29T05:22:41;2.20;;;2.00;;
10381;SDS011;11635;53.636;10.120;2022-12-29T05:25:07;2.38;;;2.10;;
10381;SDS011;11635;53.636;10.120;2022-12-29T05:27:34;2.33;;;2.03;;
10381;SDS011;11635;53.636;10.120;2022-12-29T05:30:00;2.35;;;2.10;;
10381;SDS011;11635;53.636;10.120;2022-12-29T05:32:26;2.15;;;1.95;;
10381;SDS011;11635;53.636;10.120;2022-12-29T05:34:54;2.22;;;2.03;;
10381;SDS011;11635;53.636;10.120;2022-12-29T05:37:20;2.33;;;2.10;;
10381;SDS011;11635;53.636;10.120;2022-12-29T05:39:47;2.45;;;2.25;;
10381;SDS011;11635;53.636;10.120;2022-12-29T05:42:13;2.55;;;2.35;;
10381;SDS011;11635;53.636;10.120;2022-12-29T05:44:40;3.38;;;2.58;;
10381;SDS011;11635;53.636;10.120;2022-12-29T05:47:06;2.65;;;2.42;;
10381;SDS011;11635;53.636;10.120;2022-12-29T05:49:32;2.63;;;2.42;;
10381;SDS011;11635;53.636;10.120;2022-12-29T05:52:00;3.10;;;2.40;;
10381;SDS011;11635;53.636;10.120;2022-12-29T05:54:27;4.20;;;2.63;;
10381;SDS011;11635;53.636;10.120;2022-12-29T05:56:53;2.50;;;2.30;;
10381;SDS011;11635;53.636;10.120;2022-12-29T05:59:19;3.15;;;2.85;;
10381;SDS011;11635;53.636;10.120;2022-12-29T06:01:46;3.38;;;2.90;;
10381;SDS011;11635;53.636;10.120;2022-12-29T06:04:12;3.67;;;2.38;;
10381;SDS011;11635;53.636;10.120;2022-12-29T06:06:39;3.60;;;2.78;;
10381;SDS011;11635;53.636;10.120;2022-12-29T06:09:08;3.00;;;2.70;;
10381;SDS011;11635;53.636;10.120;2022-12-29T06:11:35;2.92;;;2.63;;
10381;SDS011;11635;53.636;10.120;2022-12-29T06:14:02;3.55;;;2.60;;
10381;SDS011;11635;53.636;10.120;2022-12-29T06:16:28;2.85;;;2.55;;
10381;SDS011;11635;53.636;10.120;2022-12-29T06:18:55;2.97;;;2.42;;
10381;SDS011;11635;53.636;10.120;2022-12-29T06:21:21;3.15;;;2.55;;
10381;SDS011;11635;53.636;10.120;2022-12-29T06:23:47;4.32;;;2.78;;
10381;SDS011;11635;53.636;10.120;2022-12-29T06:26:15;3.55;;;2.45;;
10381;SDS011;11635;53.636;10.120;2022-12-29T06:28:41;2.75;;;2.30;;
10381;SDS011;11635;53.636;10.120;2022-12-29T06:31:08;2.70;;;2.40;;
10381;SDS011;11635;53.636;10.120;2022-12-29T06:33:35;3.67;;;2.72;;
10381;SDS011;11635;53.636;10.120;2022-12-29T06:36:02;3.50;;;3.20;;
10381;SDS011;11635;53.636;10.120;2022-12-29T06:38:28;3.80;;;2.80;;
10381;SDS011;11635;53.636;10.120;2022-12-29T06:40:55;2.80;;;2.50;;
10381;SDS011;11635;53.636;10.120;2022-12-29T06:43:23;2.50;;;2.30;;
10381;SDS011;11635;53.636;10.120;2022-12-29T06:45:50;2.75;;;2.15;;
10381;SDS011;11635;53.636;10.120;2022-12-29T06:48:17;2.72;;;2.53;;
10381;SDS011;11635;53.636;10.120;2022-12-29T06:50:44;2.70;;;2.50;;
10381;SDS011;11635;53.636;10.120;2022-12-29T06:53:10;3.88;;;2.30;;
10381;SDS011;11635;53.636;10.120;2022-12-29T06:55:37;3.05;;;2.47;;
10381;SDS011;11635;53.636;10.120;2022-12-29T06:58:03;3.63;;;2.30;;
10381;SDS011;11635;53.636;10.120;2022-12-29T07:00:31;3.03;;;2.33;;
10381;SDS011;11635;53.636;10.120;2022-12-29T07:02:58;2.25;;;2.05;;
10381;SDS011;11635;53.636;10.120;2022-12-29T07:05:24;2.20;;;2.00;;
10381;SDS011;11635;53.636;10.120;2022-12-29T07:07:52;2.65;;;2.35;;
10381;SDS011;11635;53.636;10.120;2022-12-29T07:10:18;2.25;;;2.05;;
10381;SDS011;11635;53.636;10.120;2022-12-29T07:12:45;7.50;;;2.50;;
10381;SDS011;11635;53.636;10.120;2022-12-29T07:15:11;2.78;;;2.05;;
10381;SDS011;11635;53.636;10.120;2022-12-29T07:17:39;2.20;;;1.95;;
10381;SDS011;11635;53.636;10.120;2022-12-29T07:20:06;2.53;;;2.20;;
10381;SDS011;11635;53.636;10.120;2022-12-29T07:22:32;3.53;;;2.38;;
10381;SDS011;11635;53.636;10.120;2022-12-29T07:24:59;2.38;;;2.17;;
10381;SDS011;11635;53.636;10.120;2022-12-29T07:27:25;2.13;;;1.85;;
10381;SDS011;11635;53.636;10.120;2022-12-29T07:29:51;2.65;;;1.90;;
10381;SDS011;11635;53.636;10.120;2022-12-29T07:32:18;2.30;;;2.10;;
10381;SDS011;11635;53.636;10.120;2022-12-29T07:34:46;2.97;;;1.92;;
10381;SDS011;11635;53.636;10.120;2022-12-29T07:37:12;3.55;;;2.08;;
10381;SDS011;11635;53.636;10.120;2022-12-29T07:39:39;2.45;;;2.25;;
10381;SDS011;11635;53.636;10.120;2022-12-29T07:42:05;3.10;;;2.40;;
10381;SDS011;11635;53.636;10.120;2022-12-29T07:44:32;3.83;;;2.45;;
10381;SDS011;11635;53.636;10.120;2022-12-29T07:46:58;3.53;;;2.30;;
10381;SDS011;11635;53.636;10.120;2022-12-29T07:49:25;3.40;;;2.70;;
10381;SDS011;11635;53.636;10.120;2022-12-29T07:51:52;2.53;;;2.20;;
10381;SDS011;11635;53.636;10.120;2022-12-29T07:54:19;2.70;;;2.50;;
10381;SDS011;11635;53.636;10.120;2022-12-29T07:56:47;3.45;;;2.60;;
10381;SDS011;11635;53.636;10.120;2022-12-29T07:59:14;3.85;;;2.53;;
10381;SDS011;11635;53.636;10.120;2022-12-29T08:01:41;4.00;;;3.00;;
10381;SDS011;11635;53.636;10.120;2022-12-29T08:04:07;3.92;;;2.40;;
10381;SDS011;11635;53.636;10.120;2022-12-29T08:06:33;3.42;;;2.78;;
10381;SDS011;11635;53.636;10.120;2022-12-29T08:09:01;5.40;;;2.88;;
10381;SDS011;11635;53.636;10.120;2022-12-29T08:11:27;3.20;;;2.72;;
10381;SDS011;11635;53.636;10.120;2022-12-29T08:13:54;4.03;;;2.55;;
10381;SDS011;11635;53.636;10.120;2022-12-29T08:16:20;2.50;;;1.92;;
10381;SDS011;11635;53.636;10.120;2022-12-29T08:18:47;2.72;;;2.25;;
10381;SDS011;11635;53.636;10.120;2022-12-29T08:21:13;2.10;;;2.00;;
10381;SDS011;11635;53.636;10.120;2022-12-29T08:23:39;2.17;;;2.08;;
10381;SDS011;11635;53.636;10.120;2022-12-29T08:26:07;2.53;;;2.17;;
10381;SDS011;11635;53.636;10.120;2022-12-29T08:28:33;2.85;;;1.85;;
10381;SDS011;11635;53.636;10.120;2022-12-29T08:31:00;2.60;;;2.40;;
10381;SDS011;11635;53.636;10.120;2022-12-29T08:33:27;2.15;;;1.98;;
10381;SDS011;11635;53.636;10.120;2022-12-29T08:35:59;2.65;;;2.35;;
10381;SDS011;11635;53.636;10.120;2022-12-29T08:38:26;4.18;;;2.60;;
10381;SDS011;11635;53.636;10.120;2022-12-29T08:40:52;2.13;;;2.00;;
10381;SDS011;11635;53.636;10.120;2022-12-29T08:43:20;4.82;;;2.38;;
10381;SDS011;11635;53.636;10.120;2022-12-29T08:45:46;3.25;;;2.38;;
10381;SDS011;11635;53.636;10.120;2022-12-29T08:48:13;2.72;;;2.53;;
10381;SDS011;11635;53.636;10.120;2022-12-29T08:50:43;3.92;;;2.50;;
10381;SDS011;11635;53.636;10.120;2022-12-29T08:53:09;3.03;;;2.60;;
10381;SDS011;11635;53.636;10.120;2022-12-29T08:55:35;3.15;;;2.75;;
10381;SDS011;11635;53.636;10.120;2022-12-29T08:58:02;3.88;;;2.47;;
10381;SDS011;11635;53.636;10.120;2022-12-29T09:00:29;3.88;;;2.42;;
10381;SDS011;11635;53.636;10.120;2022-12-29T09:02:56;2.50;;;2.30;;
10381;SDS011;11635;53.636;10.120;2022-12-29T09:05:22;3.72;;;1.98;;
10381;SDS011;11635;53.636;10.120;2022-12-29T09:07:48;5.35;;;2.30;;
10381;SDS011;11635;53.636;10.120;2022-12-29T09:10:15;3.90;;;2.00;;
10381;SDS011;11635;53.636;10.120;2022-12-29T09:12:41;3.00;;;1.85;;
10381;SDS011;11635;53.636;10.120;2022-12-29T09:15:08;4.32;;;1.98;;
10381;SDS011;11635;53.636;10.120;2022-12-29T09:17:36;3.50;;;1.80;;
10381;SDS011;11635;53.636;10.120;2022-12-29T09:20:09;3.28;;;2.13;;
10381;SDS011;11635;53.636;10.120;2022-12-29T09:22:36;4.47;;;2.00;;
10381;SDS011;11635;53.636;10.120;2022-12-29T09:25:02;6.43;;;1.90;;
10381;SDS011;11635;53.636;10.120;2022-12-29T09:27:28;3.67;;;1.70;;
10381;SDS011;11635;53.636;10.120;2022-12-29T09:29:55;6.50;;;1.90;;
10381;SDS011;11635;53.636;10.120;2022-12-29T09:32:22;2.90;;;1.42;;
10381;SDS011;11635;53.636;10.120;2022-12-29T09:34:49;5.82;;;1.73;;
10381;SDS011;11635;53.636;10.120;2022-12-29T09:37:16;2.70;;;1.40;;
10381;SDS011;11635;53.636;10.120;2022-12-29T09:39:42;2.47;;;1.40;;
10381;SDS011;11635;53.636;10.120;2022-12-29T09:42:11;2.75;;;1.60;;
10381;SDS011;11635;53.636;10.120;2022-12-29T09:44:44;2.80;;;1.67;;
10381;SDS011;11635;53.636;10.120;2022-12-29T09:47:13;2.97;;;1.27;;
10381;SDS011;11635;53.636;10.120;2022-12-29T09:49:42;4.13;;;1.63;;
10381;SDS011;11635;53.636;10.120;2022-12-29T09:52:12;3.50;;;1.67;;
10381;SDS011;11635;53.636;10.120;2022-12-29T09:54:41;5.53;;;1.80;;
10381;SDS011;11635;53.636;10.120;2022-12-29T09:57:13;7.78;;;1.83;;
10381;SDS011;11635;53.636;10.120;2022-12-29T09:59:41;3.33;;;1.23;;
10381;SDS011;11635;53.636;10.120;2022-12-29T10:02:12;4.65;;;2.03;;
10381;SDS011;11635;53.636;10.120;2022-12-29T10:04:42;2.65;;;1.38;;
10381;SDS011;11635;53.636;10.120;2022-12-29T10:07:10;2.70;;;1.50;;
10381;SDS011;11635;53.636;10.120;2022-12-29T10:09:42;2.90;;;1.30;;
10381;SDS011;11635;53.636;10.120;2022-12-29T10:12:15;4.40;;;1.73;;
10381;SDS011;11635;53.636;10.120;2022-12-29T10:14:51;3.50;;;1.60;;
10381;SDS011;11635;53.636;10.120;2022-12-29T10:17:23;3.85;;;1.63;;
10381;SDS011;11635;53.636;10.120;2022-12-29T10:22:40;4.47;;;1.30;;
10381;SDS011;11635;53.636;10.120;2022-12-29T10:25:15;5.50;;;1.48;;
10381;SDS011;11635;53.636;10.120;2022-12-29T10:27:42;3.25;;;1.50;;
10381;SDS011;11635;53.636;10.120;2022-12-29T10:30:11;5.10;;;1.67;;
10381;SDS011;11635;53.636;10.120;2022-12-29T10:32:38;4.32;;;1.48;;
10381;SDS011;11635;53.636;10.120;2022-12-29T10:35:09;6.15;;;1.70;;
10381;SDS011;11635;53.636;10.120;2022-12-29T10:37:38;2.63;;;1.52;;
10381;SDS011;11635;53.636;10.120;2022-12-29T10:40:14;5.03;;;1.65;;
10381;SDS011;11635;53.636;10.120;2022-12-29T10:42:42;4.00;;;2.03;;
10381;SDS011;11635;53.636;10.120;2022-12-29T10:45:11;4.82;;;1.42;;
10381;SDS011;11635;53.636;10.120;2022-12-29T10:47:39;3.70;;;1.50;;
10381;SDS011;11635;53.636;10.120;2022-12-29T10:50:06;6.85;;;1.50;;
10381;SDS011;11635;53.636;10.120;2022-12-29T10:52:33;6.45;;;1.88;;
10381;SDS011;11635;53.636;10.120;2022-12-29T10:55:00;6.93;;;1.70;;
10381;SDS011;11635;53.636;10.120;2022-12-29T10:57:31;6.53;;;1.98;;
10381;SDS011;11635;53.636;10.120;2022-12-29T10:59:58;4.22;;;1.58;;
10381;SDS011;11635;53.636;10.120;2022-12-29T11:02:38;4.95;;;1.85;;
10381;SDS011;11635;53.636;10.120;2022-12-29T11:05:10;3.92;;;1.63;;
10381;SDS011;11635;53.636;10.120;2022-12-29T11:07:41;7.82;;;1.65;;
10381;SDS011;11635;53.636;10.120;2022-12-29T11:10:18;5.90;;;1.80;;
10381;SDS011;11635;53.636;10.120;2022-12-29T11:12:56;6.80;;;1.83;;
10381;SDS011;11635;53.636;10.120;2022-12-29T11:15:22;6.28;;;2.00;;
10381;SDS011;11635;53.636;10.120;2022-12-29T11:17:50;4.85;;;1.60;;
10381;SDS011;11635;53.636;10.120;2022-12-29T11:20:26;5.00;;;2.00;;
10381;SDS011;11635;53.636;10.120;2022-12-29T11:22:53;5.80;;;1.67;;
10381;SDS011;11635;53.636;10.120;2022-12-29T11:25:20;5.15;;;1.75;;
10381;SDS011;11635;53.636;10.120;2022-12-29T11:27:55;4.95;;;2.10;;
10381;SDS011;11635;53.636;10.120;2022-12-29T11:30:23;5.53;;;1.70;;
10381;SDS011;11635;53.636;10.120;2022-12-29T11:32:50;4.32;;;1.52;;
10381;SDS011;11635;53.636;10.120;2022-12-29T11:35:18;6.07;;;1.52;;
10381;SDS011;11635;53.636;10.120;2022-12-29T11:37:55;6.97;;;1.73;;
10381;SDS011;11635;53.636;10.120;2022-12-29T11:40:22;4.88;;;1.50;;
10381;SDS011;11635;53.636;10.120;2022-12-29T11:42:50;6.57;;;1.75;;
10381;SDS011;11635;53.636;10.120;2022-12-29T11:45:19;5.35;;;1.98;;
10381;SDS011;11635;53.636;10.120;2022-12-29T11:47:47;5.10;;;1.30;;
10381;SDS011;11635;53.636;10.120;2022-12-29T11:50:16;4.47;;;1.50;;
10381;SDS011;11635;53.636;10.120;2022-12-29T11:52:43;3.75;;;1.40;;
10381;SDS011;11635;53.636;10.120;2022-12-29T11:55:16;7.75;;;1.60;;
10381;SDS011;11635;53.636;10.120;2022-12-29T11:57:43;5.53;;;1.55;;
10381;SDS011;11635;53.636;10.120;2022-12-29T12:00:15;3.75;;;1.75;;
10381;SDS011;11635;53.636;10.120;2022-12-29T12:02:45;4.32;;;2.05;;
10381;SDS011;11635;53.636;10.120;2022-12-29T12:07:56;4.25;;;1.70;;
10381;SDS011;11635;53.636;10.120;2022-12-29T12:10:27;2.47;;;1.55;;
10381;SDS011;11635;53.636;10.120;2022-12-29T12:15:39;2.88;;;1.63;;
10381;SDS011;11635;53.636;10.120;2022-12-29T12:18:10;3.08;;;1.67;;
10381;SDS011;11635;53.636;10.120;2022-12-29T12:20:38;3.42;;;1.60;;
10381;SDS011;11635;53.636;10.120;2022-12-29T12:23:11;3.50;;;1.50;;
10381;SDS011;11635;53.636;10.120;2022-12-29T12:25:43;5.03;;;1.70;;
10381;SDS011;11635;53.636;10.120;2022-12-29T12:28:13;5.28;;;1.70;;
10381;SDS011;11635;53.636;10.120;2022-12-29T12:30:43;3.63;;;1.35;;
10381;SDS011;11635;53.636;10.120;2022-12-29T12:33:15;4.85;;;2.20;;
10381;SDS011;11635;53.636;10.120;2022-12-29T12:35:43;3.13;;;1.38;;
10381;SDS011;11635;53.636;10.120;2022-12-29T12:38:15;4.15;;;1.63;;
10381;SDS011;11635;53.636;10.120;2022-12-29T12:41:05;4.60;;;1.60;;
10381;SDS011;11635;53.636;10.120;2022-12-29T12:49:14;6.13;;;2.25;;
10381;SDS011;11635;53.636;10.120;2022-12-29T12:51:47;5.13;;;1.80;;
10381;SDS011;11635;53.636;10.120;2022-12-29T12:54:21;5.45;;;2.33;;
10381;SDS011;11635;53.636;10.120;2022-12-29T12:56:54;6.75;;;2.20;;
10381;SDS011;11635;53.636;10.120;2022-12-29T12:59:28;6.53;;;1.92;;
10381;SDS011;11635;53.636;10.120;2022-12-29T13:01:58;7.97;;;1.73;;
10381;SDS011;11635;53.636;10.120;2022-12-29T13:04:32;3.95;;;1.30;;
10381;SDS011;11635;53.636;10.120;2022-12-29T13:07:04;8.63;;;2.00;;
10381;SDS011;11635;53.636;10.120;2022-12-29T13:09:40;5.80;;;2.13;;
10381;SDS011;11635;53.636;10.120;2022-12-29T13:12:12;6.93;;;2.13;;
10381;SDS011;11635;53.636;10.120;2022-12-29T13:14:46;5.47;;;2.15;;
10381;SDS011;11635;53.636;10.120;2022-12-29T13:17:15;5.93;;;1.80;;
10381;SDS011;11635;53.636;10.120;2022-12-29T13:19:50;5.10;;;2.00;;
10381;SDS011;11635;53.636;10.120;2022-12-29T13:22:19;3.53;;;1.90;;
10381;SDS011;11635;53.636;10.120;2022-12-29T13:24:50;4.30;;;1.63;;
10381;SDS011;11635;53.636;10.120;2022-12-29T13:27:22;4.35;;;1.45;;
10381;SDS011;11635;53.636;10.120;2022-12-29T13:29:51;7.78;;;1.85;;
10381;SDS011;11635;53.636;10.120;2022-12-29T13:32:21;7.03;;;2.30;;
10381;SDS011;11635;53.636;10.120;2022-12-29T13:37:54;4.90;;;1.98;;
10381;SDS011;11635;53.636;10.120;2022-12-29T13:40:22;6.53;;;1.95;;
10381;SDS011;11635;53.636;10.120;2022-12-29T13:42:49;5.57;;;1.98;;
10381;SDS011;11635;53.636;10.120;2022-12-29T13:45:17;3.70;;;1.92;;
10381;SDS011;11635;53.636;10.120;2022-12-29T13:47:45;7.55;;;2.30;;
10381;SDS011;11635;53.636;10.120;2022-12-29T13:50:14;6.85;;;1.90;;
10381;SDS011;11635;53.636;10.120;2022-12-29T13:52:43;6.07;;;2.35;;
10381;SDS011;11635;53.636;10.120;2022-12-29T13:55:19;6.43;;;2.20;;
10381;SDS011;11635;53.636;10.120;2022-12-29T13:57:48;5.03;;;2.10;;
10381;SDS011;11635;53.636;10.120;2022-12-29T14:00:16;6.60;;;2.83;;
10381;SDS011;11635;53.636;10.120;2022-12-29T14:02:46;5.07;;;1.75;;
10381;SDS011;11635;53.636;10.120;2022-12-29T14:08:01;6.82;;;2.08;;
10381;SDS011;11635;53.636;10.120;2022-12-29T14:10:32;6.18;;;2.58;;
10381;SDS011;11635;53.636;10.120;2022-12-29T14:13:02;5.32;;;2.25;;
10381;SDS011;11635;53.636;10.120;2022-12-29T14:15:29;6.57;;;2.15;;
10381;SDS011;11635;53.636;10.120;2022-12-29T14:18:00;6.85;;;2.38;;
10381;SDS011;11635;53.636;10.120;2022-12-29T14:20:27;3.58;;;1.63;;
10381;SDS011;11635;53.636;10.120;2022-12-29T14:22:58;3.80;;;1.33;;
10381;SDS011;11635;53.636;10.120;2022-12-29T14:28:16;4.22;;;1.27;;
10381;SDS011;11635;53.636;10.120;2022-12-29T14:30:49;5.32;;;1.70;;
10381;SDS011;11635;53.636;10.120;2022-12-29T14:33:16;5.38;;;1.58;;
10381;SDS011;11635;53.636;10.120;2022-12-29T14:35:43;4.43;;;1.90;;
10381;SDS011;11635;53.636;10.120;2022-12-29T14:38:14;4.82;;;2.22;;
10381;SDS011;11635;53.636;10.120;2022-12-29T14:40:41;7.78;;;1.92;;
10381;SDS011;11635;53.636;10.120;2022-12-29T14:43:11;5.25;;;1.95;;
10381;SDS011;11635;53.636;10.120;2022-12-29T14:45:39;3.58;;;1.63;;
10381;SDS011;11635;53.636;10.120;2022-12-29T14:48:19;2.83;;;1.52;;
10381;SDS011;11635;53.636;10.120;2022-12-29T14:50:46;5.15;;;1.80;;
10381;SDS011;11635;53.636;10.120;2022-12-29T14:55:54;3.22;;;1.45;;
10381;SDS011;11635;53.636;10.120;2022-12-29T14:58:22;4.30;;;1.95;;
10381;SDS011;11635;53.636;10.120;2022-12-29T15:00:53;2.47;;;1.48;;
10381;SDS011;11635;53.636;10.120;2022-12-29T15:03:21;7.22;;;2.05;;
10381;SDS011;11635;53.636;10.120;2022-12-29T15:05:48;5.68;;;2.42;;
10381;SDS011;11635;53.636;10.120;2022-12-29T15:08:17;4.65;;;1.95;;
10381;SDS011;11635;53.636;10.120;2022-12-29T15:10:45;4.70;;;2.05;;